createdAt,value
2022-10-17T00:00:12.450Z,101706.28
2022-10-17T00:03:02.060Z,101703.72
2022-10-17T00:05:31.415Z,101711.81
2022-10-17T00:08:00.721Z,101724.38
2022-10-17T00:10:29.980Z,101718.25
2022-10-17T00:13:00.870Z,101713.88
2022-10-17T00:15:30.201Z,101710.44
2022-10-17T00:17:59.620Z,101710.53
2022-10-17T00:20:30.411Z,101717.75
2022-10-17T00:23:00.682Z,101720.53
2022-10-17T00:25:29.868Z,101728.63
2022-10-17T00:28:00.590Z,101721.56
2022-10-17T00:30:30.380Z,101720.78
2022-10-17T00:32:59.867Z,101723.56
2022-10-17T00:35:29.073Z,101727.25
2022-10-17T00:37:58.466Z,101730.84
2022-10-17T00:40:27.974Z,101728.28
2022-10-17T00:42:59.060Z,101739.94
2022-10-17T00:45:29.991Z,101740.06
2022-10-17T00:48:05.038Z,101741.94
2022-10-17T00:50:35.445Z,101743.78
2022-10-17T00:53:08.911Z,101737.66
2022-10-17T00:55:44.054Z,101737.75
2022-10-17T00:58:15.211Z,101746.75
2022-10-17T01:00:45.572Z,101747.72
2022-10-17T01:03:15.383Z,101751.44
2022-10-17T01:05:44.997Z,101756.88
2022-10-17T01:08:14.711Z,101746.31
2022-10-17T01:10:56.011Z,101746.41
2022-10-17T01:13:31.664Z,101742.91
2022-10-17T01:16:10.367Z,101750.09
2022-10-17T01:18:50.429Z,101748.44
2022-10-17T01:21:36.994Z,101757.44
2022-10-17T01:24:30.736Z,101765.53
2022-10-17T01:27:30.696Z,101772.72
2022-10-17T01:30:31.533Z,101767.50
2022-10-17T01:33:09.951Z,101788.00
2022-10-17T01:35:43.502Z,101783.63
2022-10-17T01:38:16.596Z,101761.47
2022-10-17T01:40:50.886Z,101758.88
2022-10-17T01:43:27.176Z,101769.59
2022-10-17T01:46:02.718Z,101768.78
2022-10-17T01:48:38.693Z,101783.06
2022-10-17T01:51:12.474Z,101788.41
2022-10-17T01:53:46.901Z,101786.72
2022-10-17T01:56:18.002Z,101788.56
2022-10-17T01:58:52.652Z,101785.06
2022-10-17T02:01:24.258Z,101782.47
2022-10-17T02:03:57.388Z,101792.25
2022-10-17T02:06:26.859Z,101797.66
2022-10-17T02:08:56.183Z,101795.91
2022-10-17T02:11:27.420Z,101800.38
2022-10-17T02:14:15.525Z,101798.63
2022-10-17T02:16:54.348Z,101806.69
2022-10-17T02:19:40.058Z,101801.38
2022-10-17T02:22:20.934Z,101798.75
2022-10-17T02:24:57.426Z,101795.22
2022-10-17T02:27:36.209Z,101802.34
2022-10-17T02:34:00.697Z,101806.94
2022-10-17T02:36:37.143Z,101822.94
2022-10-17T02:39:08.932Z,101824.75
2022-10-17T02:41:39.953Z,101817.72
2022-10-17T02:44:11.817Z,101826.66
2022-10-17T02:46:42.826Z,101824.94
2022-10-17T02:49:19.393Z,101826.72
2022-10-17T02:51:58.503Z,101839.19
2022-10-17T02:54:35.643Z,101833.91
2022-10-17T02:57:12.713Z,101840.16
2022-10-17T02:59:45.299Z,101845.50
2022-10-17T03:02:15.030Z,101851.75
2022-10-17T03:04:44.811Z,101858.88
2022-10-17T03:07:15.908Z,101856.25
2022-10-17T03:09:46.769Z,101850.03
2022-10-17T03:12:15.924Z,101855.38
2022-10-17T03:14:45.244Z,101847.41
2022-10-17T03:17:14.945Z,101857.19
2022-10-17T03:19:44.297Z,101859.84
2022-10-17T03:22:14.922Z,101867.84
2022-10-17T03:24:47.600Z,101867.84
2022-10-17T03:27:17.284Z,101848.34
2022-10-17T03:29:47.774Z,101846.59
2022-10-17T03:32:18.027Z,101843.06
2022-10-17T03:34:47.807Z,101850.16
2022-10-17T03:37:18.496Z,101850.19
2022-10-17T03:39:48.001Z,101850.19
2022-10-17T03:42:17.751Z,101858.19
2022-10-17T03:44:47.177Z,101859.97
2022-10-17T03:47:16.723Z,101852.00
2022-10-17T03:49:47.194Z,101850.25
2022-10-17T03:52:18.503Z,101848.47
2022-10-17T03:54:47.987Z,101844.03
2022-10-17T03:57:17.123Z,101862.66
2022-10-17T03:59:46.543Z,101858.22
2022-10-17T04:02:20.020Z,101863.56
2022-10-17T04:04:49.576Z,101866.22
2022-10-17T04:07:20.173Z,101882.19
2022-10-17T04:09:51.079Z,101890.16
2022-10-17T04:12:22.295Z,101903.44
2022-10-17T04:14:51.784Z,101900.81
2022-10-17T04:17:21.142Z,101895.47
2022-10-17T04:19:51.405Z,101894.59
2022-10-17T04:22:22.897Z,101891.94
2022-10-17T04:24:52.338Z,101891.94
2022-10-17T04:27:28.284Z,101888.38
2022-10-17T04:29:57.765Z,101885.72
2022-10-17T04:32:27.458Z,101884.84
2022-10-17T04:35:29.040Z,101889.25
2022-10-17T04:38:05.837Z,101891.88
2022-10-17T04:40:35.286Z,101905.19
2022-10-17T04:43:04.583Z,101895.44
2022-10-17T04:45:38.561Z,101890.97
2022-10-17T04:48:08.367Z,101898.94
2022-10-17T04:50:37.859Z,101901.56
2022-10-17T04:53:33.562Z,101898.88
2022-10-17T04:56:03.123Z,101897.09
2022-10-17T04:58:32.330Z,101904.16
2022-10-17T05:01:05.327Z,101916.56
2022-10-17T05:03:35.739Z,101901.47
2022-10-17T05:06:09.411Z,101907.66
2022-10-17T05:08:41.659Z,101917.41
2022-10-17T05:11:19.452Z,101912.06
2022-10-17T05:13:52.908Z,101908.47
2022-10-17T05:16:22.952Z,101912.00
2022-10-17T05:18:53.936Z,101919.97
2022-10-17T05:21:24.765Z,101919.97
2022-10-17T05:23:57.125Z,101919.94
2022-10-17T05:26:27.253Z,101912.81
2022-10-17T05:28:56.667Z,101918.97
2022-10-17T05:31:28.071Z,101922.50
2022-10-17T05:33:57.446Z,101927.81
2022-10-17T05:36:27.624Z,101922.44
2022-10-17T05:38:58.322Z,101928.63
2022-10-17T05:41:27.975Z,101918.84
2022-10-17T05:43:58.550Z,101925.94
2022-10-17T05:46:45.350Z,101936.50
2022-10-17T05:49:31.924Z,101934.72
2022-10-17T05:52:03.232Z,101939.09
2022-10-17T05:54:38.921Z,101947.94
2022-10-17T05:57:08.300Z,101939.91
2022-10-17T05:59:38.477Z,101949.69
2022-10-17T06:02:15.246Z,101946.06
2022-10-17T06:04:46.105Z,101939.84
2022-10-17T06:07:17.487Z,101939.78
2022-10-17T06:09:48.940Z,101944.16
2022-10-17T06:12:18.481Z,101942.41
2022-10-17T06:14:48.495Z,101952.97
2022-10-17T06:17:18.371Z,101947.59
2022-10-17T06:19:47.715Z,101942.25
2022-10-17T06:22:18.132Z,101955.47
2022-10-17T06:24:50.339Z,101958.09
2022-10-17T06:27:19.993Z,101958.94
2022-10-17T06:29:51.229Z,101968.66
2022-10-17T06:32:20.985Z,101962.38
2022-10-17T06:34:50.191Z,101972.97
2022-10-17T06:37:19.587Z,101965.78
2022-10-17T06:39:51.792Z,101963.06
2022-10-17T06:42:24.354Z,101985.19
2022-10-17T06:45:09.761Z,101988.63
2022-10-17T06:47:55.271Z,101995.63
2022-10-17T06:50:53.541Z,101998.16
2022-10-17T06:53:27.232Z,101998.03
2022-10-17T06:56:16.646Z,102002.38
2022-10-17T06:58:57.467Z,101996.94
2022-10-17T07:01:47.225Z,101987.91
2022-10-17T07:04:18.022Z,101980.69
2022-10-17T07:06:47.265Z,101993.91
2022-10-17T07:09:24.331Z,101987.59
2022-10-17T07:11:55.027Z,101991.03
2022-10-17T07:14:31.780Z,101985.56
2022-10-17T07:17:01.600Z,101991.69
2022-10-17T07:19:33.796Z,102001.41
2022-10-17T07:22:03.101Z,101997.75
2022-10-17T07:24:33.677Z,102001.22
2022-10-17T07:27:17.300Z,101995.78
2022-10-17T07:29:46.786Z,101998.38
2022-10-17T07:32:42.023Z,102005.41
2022-10-17T07:35:12.729Z,102002.66
2022-10-17T07:37:43.541Z,102001.63
2022-10-17T07:40:13.384Z,102007.75
2022-10-17T07:42:44.058Z,101995.19
2022-10-17T07:45:14.148Z,102003.06
2022-10-17T07:47:44.702Z,102021.69
2022-10-17T07:50:17.788Z,102021.53
2022-10-17T07:52:48.346Z,102016.06
2022-10-17T07:55:17.830Z,102013.25
2022-10-17T07:57:48.322Z,102014.91
2022-10-17T08:00:17.868Z,102018.38
2022-10-17T08:02:47.132Z,102028.03
2022-10-17T08:05:16.556Z,102030.50
2022-10-17T08:07:45.877Z,102030.38
2022-10-17T08:10:16.712Z,102032.84
2022-10-17T08:12:46.310Z,102020.22
2022-10-17T08:15:17.084Z,102020.03
2022-10-17T08:17:46.364Z,102018.97
2022-10-17T08:20:15.734Z,102011.72
2022-10-17T08:22:45.283Z,102011.59
2022-10-17T08:25:14.593Z,102004.28
2022-10-17T08:27:43.829Z,102013.09
2022-10-17T08:30:15.180Z,102008.47
2022-10-17T08:32:44.624Z,102005.59
2022-10-17T08:35:14.782Z,102012.56
2022-10-17T08:37:44.254Z,101998.13
2022-10-17T08:40:20.279Z,102010.41
2022-10-17T08:43:04.210Z,101994.09
2022-10-17T08:45:42.268Z,101992.03
2022-10-17T08:48:15.730Z,101998.94
2022-10-17T08:50:49.980Z,101991.56
2022-10-17T08:53:24.255Z,101989.47
2022-10-17T08:55:55.759Z,101992.81
2022-10-17T08:58:27.257Z,101993.38
2022-10-17T09:01:11.934Z,101985.09
2022-10-17T09:04:03.057Z,101994.63
2022-10-17T09:06:36.492Z,101987.19
2022-10-17T09:09:17.251Z,101996.75
2022-10-17T09:12:02.630Z,101985.69
2022-10-17T09:14:49.090Z,101996.16
2022-10-17T09:17:32.672Z,102004.78
2022-10-17T09:20:07.447Z,101998.25
2022-10-17T09:22:44.101Z,101994.31
2022-10-17T09:25:17.193Z,101999.41
2022-10-17T09:27:49.987Z,101991.06
2022-10-17T09:30:45.184Z,101993.38
2022-10-17T09:33:34.360Z,101982.34
2022-10-17T09:36:16.164Z,101980.19
2022-10-17T09:38:49.359Z,101979.00
2022-10-17T09:44:17.929Z,101975.69
2022-10-17T09:47:05.007Z,101985.19
2022-10-17T09:49:38.012Z,101985.72
2022-10-17T09:52:20.261Z,101984.56
2022-10-17T09:54:52.488Z,101985.16
2022-10-17T09:57:23.030Z,101997.47
2022-10-17T10:00:00.816Z,101992.75
2022-10-17T10:02:33.503Z,101988.00
2022-10-17T10:05:07.580Z,101986.88
2022-10-17T10:07:39.436Z,101975.84
2022-10-17T10:10:27.605Z,101967.53
2022-10-17T10:13:07.316Z,101969.91
2022-10-17T10:15:41.187Z,101967.78
2022-10-17T10:21:11.200Z,101956.22
2022-10-17T10:23:41.812Z,101965.78
2022-10-17T10:26:24.580Z,101966.22
2022-10-17T10:29:00.139Z,101959.41
2022-10-17T10:31:33.349Z,101958.03
2022-10-17T10:34:17.916Z,101963.78
2022-10-17T10:37:02.215Z,101964.16
2022-10-17T10:39:44.350Z,101966.38
2022-10-17T10:42:26.771Z,101949.63
2022-10-17T10:45:00.231Z,101954.63
2022-10-17T10:47:32.401Z,101956.94
2022-10-17T10:50:22.719Z,101958.28
2022-10-17T10:53:05.844Z,101954.28
2022-10-17T10:55:41.303Z,101950.38
2022-10-17T10:58:24.926Z,101944.59
2022-10-17T11:00:55.543Z,101950.53
2022-10-17T11:03:32.499Z,101943.16
2022-10-17T11:06:06.725Z,101945.66
2022-10-17T11:08:41.925Z,101939.16
2022-10-17T11:11:18.368Z,101935.50
2022-10-17T11:13:54.877Z,101933.59
2022-10-17T11:16:35.197Z,101936.25
2022-10-17T11:19:14.070Z,101920.75
2022-10-17T11:21:49.271Z,101900.72
2022-10-17T11:24:25.764Z,101908.63
2022-10-17T11:26:59.883Z,101902.03
2022-10-17T11:29:32.694Z,101901.72
2022-10-17T11:32:07.107Z,101908.66
2022-10-17T11:34:42.862Z,101896.75
2022-10-17T11:37:19.275Z,101886.63
2022-10-17T11:39:56.109Z,101885.53
2022-10-17T11:42:31.827Z,101881.75
2022-10-17T11:45:07.388Z,101882.50
2022-10-17T11:47:42.837Z,101877.72
2022-10-17T11:53:17.076Z,101881.63
2022-10-17T11:55:49.095Z,101871.47
2022-10-17T12:01:16.337Z,101874.31
2022-10-17T12:04:09.926Z,101870.41
2022-10-17T12:06:51.169Z,101870.06
2022-10-17T12:09:28.585Z,101873.31
2022-10-17T12:12:01.321Z,101873.81
2022-10-17T12:14:40.539Z,101870.78
2022-10-17T12:17:29.351Z,101865.81
2022-10-17T12:20:27.397Z,101863.56
2022-10-17T12:23:06.258Z,101866.91
2022-10-17T12:28:18.399Z,101858.84
2022-10-17T12:30:56.888Z,101851.25
2022-10-17T12:33:34.362Z,101848.97
2022-10-17T12:36:47.031Z,101843.03
2022-10-17T12:39:43.145Z,101838.00
2022-10-17T12:42:47.917Z,101832.00
2022-10-17T12:45:53.584Z,101823.47
2022-10-17T12:48:56.085Z,101821.16
2022-10-17T12:51:35.803Z,101806.47
2022-10-17T12:54:13.609Z,101798.94
2022-10-17T12:56:45.894Z,101801.41
2022-10-17T12:59:18.820Z,101792.91
2022-10-17T13:01:52.279Z,101781.81
2022-10-17T13:04:22.509Z,101779.59
2022-10-17T13:06:55.218Z,101782.97
2022-10-17T13:09:29.532Z,101782.59
2022-10-17T13:12:02.363Z,101773.31
2022-10-17T13:14:33.100Z,101771.31
2022-10-17T13:17:04.469Z,101770.16
2022-10-17T13:19:42.884Z,101770.81
2022-10-17T13:22:18.639Z,101770.44
2022-10-17T13:24:48.897Z,101761.84
2022-10-17T13:27:29.934Z,101759.41
2022-10-17T13:30:01.055Z,101756.63
2022-10-17T13:32:38.450Z,101760.00
2022-10-17T13:35:10.914Z,101761.56
2022-10-17T13:37:44.937Z,101746.75
2022-10-17T13:40:40.930Z,101754.66
2022-10-17T13:43:17.621Z,101741.91
2022-10-17T13:45:50.500Z,101740.25
2022-10-17T13:48:23.093Z,101738.44
2022-10-17T13:50:59.143Z,101730.94
2022-10-17T13:53:33.318Z,101725.22
2022-10-17T13:56:34.708Z,101722.94
2022-10-17T13:58:57.553Z,101713.16
2022-10-17T14:01:29.797Z,101710.50
2022-10-17T14:04:09.375Z,101706.97
2022-10-17T14:06:48.010Z,101701.44
2022-10-17T14:09:25.520Z,101705.41
2022-10-17T14:12:04.203Z,101701.41
2022-10-17T14:14:46.413Z,101702.94
2022-10-17T14:17:27.189Z,101701.00
2022-10-17T14:23:20.901Z,101709.28
2022-10-17T14:25:46.160Z,101706.53
2022-10-17T14:28:18.480Z,101698.59
2022-10-17T14:30:56.911Z,101703.28
2022-10-17T14:33:29.917Z,101692.63
2022-10-17T14:36:01.631Z,101692.81
2022-10-17T14:38:33.032Z,101699.28
2022-10-17T14:41:40.812Z,101703.22
2022-10-17T14:44:01.921Z,101691.81
2022-10-17T14:46:32.144Z,101697.75
2022-10-17T14:49:24.015Z,101689.25
2022-10-17T14:52:27.507Z,101699.13
2022-10-17T14:54:57.916Z,101679.25
2022-10-17T14:57:47.334Z,101682.16
2022-10-17T15:00:17.761Z,101680.31
2022-10-17T15:02:48.720Z,101680.38
2022-10-17T15:05:19.512Z,101670.59
2022-10-17T15:07:49.104Z,101670.53
2022-10-17T15:10:29.484Z,101670.69
2022-10-17T15:13:27.545Z,101662.53
2022-10-17T15:15:53.687Z,101659.75
2022-10-17T15:18:23.065Z,101661.53
2022-10-17T15:21:04.780Z,101656.97
2022-10-17T15:23:42.947Z,101658.81
2022-10-17T15:26:19.138Z,101662.41
2022-10-17T15:28:51.125Z,101651.47
2022-10-17T15:31:22.341Z,101645.19
2022-10-17T15:33:52.415Z,101648.59
2022-10-17T15:36:26.802Z,101651.28
2022-10-17T15:38:57.720Z,101656.56
2022-10-17T15:41:28.770Z,101646.50
2022-10-17T15:44:00.640Z,101646.47
2022-10-17T15:46:33.665Z,101647.28
2022-10-17T15:49:07.632Z,101648.97
2022-10-17T15:51:37.350Z,101645.19
2022-10-17T15:54:06.877Z,101649.47
2022-10-17T15:56:38.794Z,101655.59
2022-10-17T15:59:14.097Z,101659.94
2022-10-17T16:01:44.034Z,101647.94
2022-10-17T16:04:15.591Z,101654.03
2022-10-17T16:06:45.484Z,101650.16
2022-10-17T16:09:14.860Z,101659.81
2022-10-17T16:11:46.861Z,101648.66
2022-10-17T16:14:19.247Z,101653.75
2022-10-17T16:16:48.742Z,101639.00
2022-10-17T16:19:18.079Z,101636.00
2022-10-17T16:21:47.609Z,101640.22
2022-10-17T16:24:17.943Z,101633.59
2022-10-17T16:26:47.107Z,101630.59
2022-10-17T16:29:18.338Z,101623.00
2022-10-17T16:31:48.142Z,101628.94
2022-10-17T16:34:17.939Z,101622.31
2022-10-17T16:36:47.200Z,101614.72
2022-10-17T16:39:16.607Z,101618.75
2022-10-17T16:41:45.883Z,101615.53
2022-10-17T16:44:17.973Z,101616.03
2022-10-17T16:46:47.419Z,101619.16
2022-10-17T16:49:18.303Z,101621.38
2022-10-17T16:51:47.475Z,101613.59
2022-10-17T16:54:17.410Z,101607.75
2022-10-17T16:56:46.660Z,101605.38
2022-10-17T16:59:17.721Z,101605.72
2022-10-17T17:01:46.961Z,101599.69
2022-10-17T17:04:16.288Z,101602.72
2022-10-17T17:09:20.088Z,101596.22
2022-10-17T17:11:49.223Z,101593.75
2022-10-17T17:14:20.034Z,101583.13
2022-10-17T17:16:49.194Z,101582.44
2022-10-17T17:19:18.616Z,101578.13
2022-10-17T17:21:50.914Z,101577.34
2022-10-17T17:24:22.191Z,101571.94
2022-10-17T17:26:53.867Z,101572.13
2022-10-17T17:29:26.027Z,101577.53
2022-10-17T17:31:55.414Z,101574.03
2022-10-17T17:34:24.821Z,101568.63
2022-10-17T17:36:54.056Z,101568.63
2022-10-17T17:39:23.893Z,101564.06
2022-10-17T17:41:53.283Z,101563.75
2022-10-17T17:44:24.114Z,101564.59
2022-10-17T17:46:53.272Z,101563.75
2022-10-17T17:49:22.637Z,101560.09
2022-10-17T17:51:51.550Z,101562.69
2022-10-17T17:54:21.154Z,101555.47
2022-10-17T17:56:50.118Z,101559.94
2022-10-17T17:59:19.456Z,101559.84
2022-10-17T18:01:50.517Z,101543.53
2022-10-17T18:04:19.925Z,101547.09
2022-10-17T18:06:48.849Z,101543.38
2022-10-17T18:09:18.000Z,101541.53
2022-10-17T18:11:47.097Z,101528.88
2022-10-17T18:14:16.806Z,101536.81
2022-10-17T18:16:45.963Z,101534.03
2022-10-17T18:19:17.662Z,101528.56
2022-10-17T18:21:47.065Z,101531.25
2022-10-17T18:24:16.394Z,101537.47
2022-10-17T18:26:45.349Z,101533.81
2022-10-17T18:29:14.418Z,101536.41
2022-10-17T18:31:43.755Z,101529.19
2022-10-17T18:34:13.271Z,101520.97
2022-10-17T18:36:43.591Z,101523.69
2022-10-17T18:39:13.115Z,101519.16
2022-10-17T18:41:42.075Z,101531.63
2022-10-17T18:44:14.534Z,101527.22
2022-10-17T18:49:18.948Z,101518.13
2022-10-17T18:51:50.758Z,101515.31
2022-10-17T18:54:22.162Z,101519.88
2022-10-17T18:56:52.926Z,101507.22
2022-10-17T18:59:22.943Z,101517.06
2022-10-17T19:01:52.391Z,101524.31
2022-10-17T19:04:24.960Z,101518.91
2022-10-17T19:06:56.830Z,101521.59
2022-10-17T19:09:26.664Z,101514.47
2022-10-17T19:11:56.522Z,101519.88
2022-10-17T19:14:28.624Z,101516.38
2022-10-17T19:17:00.254Z,101521.81
2022-10-17T19:19:30.813Z,101520.03
2022-10-17T19:22:03.836Z,101522.75
2022-10-17T19:24:33.224Z,101514.63
2022-10-17T19:27:04.072Z,101512.88
2022-10-17T19:29:33.626Z,101521.81
2022-10-17T19:32:02.671Z,101519.09
2022-10-17T19:34:32.613Z,101508.34
2022-10-17T19:37:03.735Z,101510.09
2022-10-17T19:39:33.225Z,101506.50
2022-10-17T19:42:06.053Z,101508.19
2022-10-17T19:44:37.023Z,101501.78
2022-10-17T19:47:06.129Z,101494.56
2022-10-17T19:49:37.784Z,101503.56
2022-10-17T19:52:08.475Z,101503.47
2022-10-17T19:54:39.504Z,101503.47
2022-10-17T19:57:10.564Z,101501.53
2022-10-17T19:59:40.398Z,101500.41
2022-10-17T20:02:11.150Z,101498.47
2022-10-17T20:04:49.664Z,101501.19
2022-10-17T20:07:30.748Z,101507.47
2022-10-17T20:10:00.065Z,101504.66
2022-10-17T20:12:29.381Z,101504.50
2022-10-17T20:14:59.076Z,101501.72
2022-10-17T20:17:28.505Z,101500.66
2022-10-17T20:19:58.151Z,101503.38
2022-10-17T20:22:27.692Z,101504.16
2022-10-17T20:24:58.551Z,101499.63
2022-10-17T20:27:27.987Z,101504.06
2022-10-17T20:30:01.722Z,101504.94
2022-10-17T20:32:39.450Z,101513.03
2022-10-17T20:35:10.172Z,101504.94
2022-10-17T20:37:42.805Z,101504.00
2022-10-17T20:40:34.090Z,101508.41
2022-10-17T20:43:04.522Z,101513.84
2022-10-17T20:45:50.932Z,101513.94
2022-10-17T20:48:21.288Z,101519.19
2022-10-17T20:50:51.509Z,101513.94
2022-10-17T20:53:37.694Z,101506.59
2022-10-17T20:56:14.307Z,101510.34
2022-10-17T20:58:44.885Z,101513.03
2022-10-17T21:01:17.026Z,101505.91
2022-10-17T21:03:46.695Z,101507.84
2022-10-17T21:06:16.705Z,101516.00
2022-10-17T21:08:49.000Z,101509.75
2022-10-17T21:11:21.269Z,101517.94
2022-10-17T21:13:56.702Z,101514.44
2022-10-17T21:16:27.093Z,101516.38
2022-10-17T21:18:58.391Z,101519.16
2022-10-17T21:21:29.602Z,101518.38
2022-10-17T21:24:00.872Z,101513.06
2022-10-17T21:26:32.919Z,101505.03
2022-10-17T21:29:08.515Z,101517.75
2022-10-17T21:31:39.243Z,101515.16
2022-10-17T21:34:10.177Z,101507.13
2022-10-17T21:36:39.657Z,101510.78
2022-10-17T21:39:08.802Z,101507.31
2022-10-17T21:41:39.913Z,101502.94
2022-10-17T21:44:13.144Z,101508.44
2022-10-17T21:46:43.130Z,101505.81
2022-10-17T21:49:13.988Z,101510.41
2022-10-17T21:51:44.143Z,101516.88
2022-10-17T21:54:13.374Z,101520.59
2022-10-17T21:56:44.451Z,101504.47
2022-10-17T21:59:14.232Z,101512.66
2022-10-17T22:01:45.621Z,101515.44
2022-10-17T22:04:16.561Z,101498.44
2022-10-17T22:06:47.422Z,101503.06
2022-10-17T22:09:18.670Z,101504.97
2022-10-17T22:11:50.705Z,101513.19
2022-10-17T22:14:21.840Z,101505.13
2022-10-17T22:16:51.713Z,101505.13
2022-10-17T22:19:22.563Z,101510.53
2022-10-17T22:21:52.411Z,101517.88
2022-10-17T22:24:22.920Z,101511.63
2022-10-17T22:26:54.007Z,101512.66
2022-10-17T22:29:23.230Z,101512.47
2022-10-17T22:31:52.552Z,101529.66
2022-10-17T22:34:21.422Z,101516.16
2022-10-17T22:36:50.598Z,101523.28
2022-10-17T22:39:20.045Z,101517.88
2022-10-17T22:41:49.332Z,101517.03
2022-10-17T22:44:19.786Z,101518.75
2022-10-17T22:46:49.154Z,101512.47
2022-10-17T22:49:18.296Z,101514.22
2022-10-17T22:51:47.473Z,101516.84
2022-10-17T22:54:16.755Z,101520.41
2022-10-17T22:56:46.235Z,101512.31
2022-10-17T22:59:15.385Z,101529.41
2022-10-17T23:01:46.007Z,101521.19
2022-10-17T23:04:15.121Z,101521.19
2022-10-17T23:06:44.077Z,101524.78
2022-10-17T23:09:14.659Z,101517.56
2022-10-17T23:11:43.994Z,101527.31
2022-10-17T23:14:13.123Z,101527.31
2022-10-17T23:16:42.089Z,101517.38
2022-10-17T23:19:12.679Z,101519.19
2022-10-17T23:21:42.133Z,101519.13
2022-10-17T23:24:10.990Z,101531.78
2022-10-17T23:26:40.269Z,101532.66
2022-10-17T23:29:09.415Z,101526.34
2022-10-17T23:31:38.632Z,101524.53
2022-10-17T23:34:07.871Z,101526.25
2022-10-17T23:36:39.093Z,101526.25
2022-10-17T23:39:08.731Z,101528.97
2022-10-17T23:41:38.052Z,101522.69
2022-10-17T23:44:07.335Z,101524.53
2022-10-17T23:46:36.515Z,101522.78
2022-10-17T23:49:05.756Z,101521.06
2022-10-17T23:51:34.988Z,101513.97
2022-10-17T23:54:05.331Z,101513.09
2022-10-17T23:56:34.550Z,101517.56
2022-10-17T23:59:03.835Z,101518.59
